sensor_id;sensor_type;location;lat;lon;timestamp;P1;durP1;ratioP1;P2;durP2;ratioP2
26620;SDS011;14253;44.840;10.444;2024-01-06T00:02:10;3.42;;;2.92;;
26620;SDS011;14253;44.840;10.444;2024-01-06T00:04:36;3.15;;;2.60;;
26620;SDS011;14253;44.840;10.444;2024-01-06T00:07:02;3.53;;;2.83;;
26620;SDS011;14253;44.840;10.444;2024-01-06T00:09:28;3.47;;;2.90;;
26620;SDS011;14253;44.840;10.444;2024-01-06T00:11:54;3.38;;;2.47;;
26620;SDS011;14253;44.840;10.444;2024-01-06T00:14:20;3.17;;;2.42;;
26620;SDS011;14253;44.840;10.444;2024-01-06T00:16:46;2.92;;;2.38;;
26620;SDS011;14253;44.840;10.444;2024-01-06T00:19:12;3.35;;;2.88;;
26620;SDS011;14253;44.840;10.444;2024-01-06T00:21:38;3.17;;;2.67;;
26620;SDS011;14253;44.840;10.444;2024-01-06T00:24:04;6.38;;;2.53;;
26620;SDS011;14253;44.840;10.444;2024-01-06T00:26:30;3.22;;;2.55;;
26620;SDS011;14253;44.840;10.444;2024-01-06T00:28:56;3.35;;;2.67;;
26620;SDS011;14253;44.840;10.444;2024-01-06T00:31:22;3.72;;;2.72;;
26620;SDS011;14253;44.840;10.444;2024-01-06T00:33:48;3.70;;;2.40;;
26620;SDS011;14253;44.840;10.444;2024-01-06T00:36:14;2.70;;;2.45;;
26620;SDS011;14253;44.840;10.444;2024-01-06T00:38:42;3.17;;;2.30;;
26620;SDS011;14253;44.840;10.444;2024-01-06T00:41:08;2.72;;;2.50;;
26620;SDS011;14253;44.840;10.444;2024-01-06T00:43:34;4.00;;;2.65;;
26620;SDS011;14253;44.840;10.444;2024-01-06T00:46:00;3.00;;;2.60;;
26620;SDS011;14253;44.840;10.444;2024-01-06T00:48:26;3.47;;;2.95;;
26620;SDS011;14253;44.840;10.444;2024-01-06T00:50:52;3.10;;;2.78;;
26620;SDS011;14253;44.840;10.444;2024-01-06T00:53:18;4.55;;;3.40;;
26620;SDS011;14253;44.840;10.444;2024-01-06T00:55:44;5.43;;;4.00;;
26620;SDS011;14253;44.840;10.444;2024-01-06T00:58:09;4.93;;;3.70;;
26620;SDS011;14253;44.840;10.444;2024-01-06T01:00:36;4.93;;;3.67;;
26620;SDS011;14253;44.840;10.444;2024-01-06T01:03:02;3.97;;;2.80;;
26620;SDS011;14253;44.840;10.444;2024-01-06T01:05:28;3.60;;;2.60;;
26620;SDS011;14253;44.840;10.444;2024-01-06T01:07:54;4.07;;;2.95;;
26620;SDS011;14253;44.840;10.444;2024-01-06T01:10:20;5.68;;;3.40;;
26620;SDS011;14253;44.840;10.444;2024-01-06T01:12:46;4.72;;;2.83;;
26620;SDS011;14253;44.840;10.444;2024-01-06T01:15:12;5.68;;;3.42;;
26620;SDS011;14253;44.840;10.444;2024-01-06T01:17:38;6.10;;;3.20;;
26620;SDS011;14253;44.840;10.444;2024-01-06T01:20:04;3.55;;;3.03;;
26620;SDS011;14253;44.840;10.444;2024-01-06T01:22:30;5.07;;;3.10;;
26620;SDS011;14253;44.840;10.444;2024-01-06T01:24:56;4.40;;;3.50;;
26620;SDS011;14253;44.840;10.444;2024-01-06T01:27:22;4.13;;;3.20;;
26620;SDS011;14253;44.840;10.444;2024-01-06T01:29:48;3.80;;;2.67;;
26620;SDS011;14253;44.840;10.444;2024-01-06T01:32:18;4.75;;;3.42;;
26620;SDS011;14253;44.840;10.444;2024-01-06T01:34:44;3.95;;;2.90;;
26620;SDS011;14253;44.840;10.444;2024-01-06T01:37:10;4.88;;;3.60;;
26620;SDS011;14253;44.840;10.444;2024-01-06T01:39:36;5.50;;;3.97;;
26620;SDS011;14253;44.840;10.444;2024-01-06T01:42:03;4.97;;;3.53;;
26620;SDS011;14253;44.840;10.444;2024-01-06T01:44:29;4.07;;;3.15;;
26620;SDS011;14253;44.840;10.444;2024-01-06T01:46:54;4.00;;;3.08;;
26620;SDS011;14253;44.840;10.444;2024-01-06T01:49:21;4.15;;;3.22;;
26620;SDS011;14253;44.840;10.444;2024-01-06T01:51:47;4.50;;;2.88;;
26620;SDS011;14253;44.840;10.444;2024-01-06T01:54:14;4.30;;;3.15;;
26620;SDS011;14253;44.840;10.444;2024-01-06T01:56:41;4.35;;;3.35;;
26620;SDS011;14253;44.840;10.444;2024-01-06T01:59:12;3.78;;;2.97;;
26620;SDS011;14253;44.840;10.444;2024-01-06T02:01:41;3.83;;;3.20;;
26620;SDS011;14253;44.840;10.444;2024-01-06T02:04:08;3.55;;;2.85;;
26620;SDS011;14253;44.840;10.444;2024-01-06T02:06:34;4.28;;;3.33;;
26620;SDS011;14253;44.840;10.444;2024-01-06T02:09:00;4.55;;;3.17;;
26620;SDS011;14253;44.840;10.444;2024-01-06T02:11:27;4.60;;;3.78;;
26620;SDS011;14253;44.840;10.444;2024-01-06T02:13:53;4.70;;;3.83;;
26620;SDS011;14253;44.840;10.444;2024-01-06T02:16:19;4.18;;;3.35;;
26620;SDS011;14253;44.840;10.444;2024-01-06T02:18:44;4.60;;;4.07;;
26620;SDS011;14253;44.840;10.444;2024-01-06T02:21:11;4.68;;;3.67;;
26620;SDS011;14253;44.840;10.444;2024-01-06T02:23:37;4.47;;;3.83;;
26620;SDS011;14253;44.840;10.444;2024-01-06T02:26:03;4.97;;;4.32;;
26620;SDS011;14253;44.840;10.444;2024-01-06T02:28:29;5.07;;;4.15;;
26620;SDS011;14253;44.840;10.444;2024-01-06T02:30:55;4.93;;;4.38;;
26620;SDS011;14253;44.840;10.444;2024-01-06T02:33:21;4.82;;;4.28;;
26620;SDS011;14253;44.840;10.444;2024-01-06T02:35:49;4.28;;;3.88;;
26620;SDS011;14253;44.840;10.444;2024-01-06T02:38:15;5.43;;;4.68;;
26620;SDS011;14253;44.840;10.444;2024-01-06T02:40:41;5.90;;;4.82;;
26620;SDS011;14253;44.840;10.444;2024-01-06T02:43:08;5.90;;;4.97;;
26620;SDS011;14253;44.840;10.444;2024-01-06T02:45:35;6.63;;;5.60;;
26620;SDS011;14253;44.840;10.444;2024-01-06T02:48:01;6.47;;;5.10;;
26620;SDS011;14253;44.840;10.444;2024-01-06T02:50:27;7.47;;;5.35;;
26620;SDS011;14253;44.840;10.444;2024-01-06T02:52:53;5.20;;;4.70;;
26620;SDS011;14253;44.840;10.444;2024-01-06T02:55:19;5.13;;;4.63;;
26620;SDS011;14253;44.840;10.444;2024-01-06T02:57:45;6.20;;;5.57;;
26620;SDS011;14253;44.840;10.444;2024-01-06T03:00:11;6.63;;;5.75;;
26620;SDS011;14253;44.840;10.444;2024-01-06T03:02:38;6.82;;;6.13;;
26620;SDS011;14253;44.840;10.444;2024-01-06T03:05:07;7.47;;;6.13;;
26620;SDS011;14253;44.840;10.444;2024-01-06T03:07:34;6.63;;;5.72;;
26620;SDS011;14253;44.840;10.444;2024-01-06T03:10:00;7.22;;;6.15;;
26620;SDS011;14253;44.840;10.444;2024-01-06T03:12:26;7.75;;;6.93;;
26620;SDS011;14253;44.840;10.444;2024-01-06T03:14:52;8.18;;;7.03;;
26620;SDS011;14253;44.840;10.444;2024-01-06T03:17:18;8.68;;;7.63;;
26620;SDS011;14253;44.840;10.444;2024-01-06T03:19:44;8.65;;;7.45;;
26620;SDS011;14253;44.840;10.444;2024-01-06T03:22:10;8.98;;;7.53;;
26620;SDS011;14253;44.840;10.444;2024-01-06T03:24:36;9.95;;;7.95;;
26620;SDS011;14253;44.840;10.444;2024-01-06T03:27:02;8.52;;;7.47;;
26620;SDS011;14253;44.840;10.444;2024-01-06T03:29:28;10.52;;;7.15;;
26620;SDS011;14253;44.840;10.444;2024-01-06T03:31:54;9.25;;;7.72;;
26620;SDS011;14253;44.840;10.444;2024-01-06T03:34:20;9.55;;;7.75;;
26620;SDS011;14253;44.840;10.444;2024-01-06T03:36:46;10.68;;;8.77;;
26620;SDS011;14253;44.840;10.444;2024-01-06T03:39:12;10.50;;;8.57;;
26620;SDS011;14253;44.840;10.444;2024-01-06T03:41:39;9.90;;;8.18;;
26620;SDS011;14253;44.840;10.444;2024-01-06T03:44:05;9.50;;;8.18;;
26620;SDS011;14253;44.840;10.444;2024-01-06T03:46:31;10.80;;;8.73;;
26620;SDS011;14253;44.840;10.444;2024-01-06T03:48:58;11.18;;;7.78;;
26620;SDS011;14253;44.840;10.444;2024-01-06T03:51:24;8.98;;;7.50;;
26620;SDS011;14253;44.840;10.444;2024-01-06T03:53:50;10.05;;;8.27;;
26620;SDS011;14253;44.840;10.444;2024-01-06T03:56:16;10.98;;;8.90;;
26620;SDS011;14253;44.840;10.444;2024-01-06T03:58:42;10.38;;;8.25;;
26620;SDS011;14253;44.840;10.444;2024-01-06T04:01:11;10.30;;;8.20;;
26620;SDS011;14253;44.840;10.444;2024-01-06T04:03:38;11.55;;;9.07;;
26620;SDS011;14253;44.840;10.444;2024-01-06T04:06:05;9.52;;;8.05;;
26620;SDS011;14253;44.840;10.444;2024-01-06T04:08:32;11.10;;;8.77;;
26620;SDS011;14253;44.840;10.444;2024-01-06T04:10:57;10.77;;;7.88;;
26620;SDS011;14253;44.840;10.444;2024-01-06T04:13:23;14.57;;;8.73;;
26620;SDS011;14253;44.840;10.444;2024-01-06T04:15:52;11.23;;;9.05;;
26620;SDS011;14253;44.840;10.444;2024-01-06T04:18:18;13.63;;;9.75;;
26620;SDS011;14253;44.840;10.444;2024-01-06T04:20:44;12.70;;;9.18;;
26620;SDS011;14253;44.840;10.444;2024-01-06T04:23:10;11.73;;;9.68;;
26620;SDS011;14253;44.840;10.444;2024-01-06T04:25:36;10.95;;;8.82;;
26620;SDS011;14253;44.840;10.444;2024-01-06T04:28:02;12.63;;;9.35;;
26620;SDS011;14253;44.840;10.444;2024-01-06T04:30:28;11.32;;;9.07;;
26620;SDS011;14253;44.840;10.444;2024-01-06T04:32:54;11.57;;;9.18;;
26620;SDS011;14253;44.840;10.444;2024-01-06T04:35:22;13.57;;;9.85;;
26620;SDS011;14253;44.840;10.444;2024-01-06T04:37:49;13.60;;;9.27;;
26620;SDS011;14253;44.840;10.444;2024-01-06T04:40:15;12.35;;;9.48;;
26620;SDS011;14253;44.840;10.444;2024-01-06T04:42:41;12.35;;;9.27;;
26620;SDS011;14253;44.840;10.444;2024-01-06T04:45:07;12.20;;;9.02;;
26620;SDS011;14253;44.840;10.444;2024-01-06T04:47:33;12.82;;;9.52;;
26620;SDS011;14253;44.840;10.444;2024-01-06T04:49:59;13.35;;;9.35;;
26620;SDS011;14253;44.840;10.444;2024-01-06T04:52:25;13.77;;;9.02;;
26620;SDS011;14253;44.840;10.444;2024-01-06T04:54:51;12.43;;;9.63;;
26620;SDS011;14253;44.840;10.444;2024-01-06T04:57:17;11.45;;;8.27;;
26620;SDS011;14253;44.840;10.444;2024-01-06T04:59:45;12.55;;;9.57;;
26620;SDS011;14253;44.840;10.444;2024-01-06T05:02:11;11.60;;;9.23;;
26620;SDS011;14253;44.840;10.444;2024-01-06T05:04:37;14.15;;;9.18;;
26620;SDS011;14253;44.840;10.444;2024-01-06T05:07:03;12.65;;;9.45;;
26620;SDS011;14253;44.840;10.444;2024-01-06T05:09:29;11.32;;;9.13;;
26620;SDS011;14253;44.840;10.444;2024-01-06T05:11:55;12.10;;;9.15;;
26620;SDS011;14253;44.840;10.444;2024-01-06T05:14:21;14.25;;;10.57;;
26620;SDS011;14253;44.840;10.444;2024-01-06T05:16:47;12.38;;;9.15;;
26620;SDS011;14253;44.840;10.444;2024-01-06T05:19:13;11.60;;;9.38;;
26620;SDS011;14253;44.840;10.444;2024-01-06T05:21:44;11.38;;;8.93;;
26620;SDS011;14253;44.840;10.444;2024-01-06T05:24:11;12.32;;;9.68;;
26620;SDS011;14253;44.840;10.444;2024-01-06T05:26:37;11.98;;;9.45;;
26620;SDS011;14253;44.840;10.444;2024-01-06T05:29:03;12.65;;;9.68;;
26620;SDS011;14253;44.840;10.444;2024-01-06T05:31:29;14.18;;;10.32;;
26620;SDS011;14253;44.840;10.444;2024-01-06T05:33:55;13.40;;;9.65;;
26620;SDS011;14253;44.840;10.444;2024-01-06T05:36:20;12.02;;;9.68;;
26620;SDS011;14253;44.840;10.444;2024-01-06T05:38:46;12.85;;;9.38;;
26620;SDS011;14253;44.840;10.444;2024-01-06T05:41:12;14.40;;;10.30;;
26620;SDS011;14253;44.840;10.444;2024-01-06T05:43:38;12.35;;;10.10;;
26620;SDS011;14253;44.840;10.444;2024-01-06T05:46:04;13.07;;;9.38;;
26620;SDS011;14253;44.840;10.444;2024-01-06T05:48:30;11.82;;;9.20;;
26620;SDS011;14253;44.840;10.444;2024-01-06T05:50:56;12.65;;;9.13;;
26620;SDS011;14253;44.840;10.444;2024-01-06T05:53:22;11.40;;;8.75;;
26620;SDS011;14253;44.840;10.444;2024-01-06T05:55:48;11.70;;;8.20;;
26620;SDS011;14253;44.840;10.444;2024-01-06T05:58:14;10.77;;;8.23;;
26620;SDS011;14253;44.840;10.444;2024-01-06T06:00:40;10.02;;;7.55;;
26620;SDS011;14253;44.840;10.444;2024-01-06T06:03:06;10.00;;;7.72;;
26620;SDS011;14253;44.840;10.444;2024-01-06T06:05:33;8.93;;;6.78;;
26620;SDS011;14253;44.840;10.444;2024-01-06T06:07:58;9.15;;;7.10;;
26620;SDS011;14253;44.840;10.444;2024-01-06T06:10:24;9.30;;;7.30;;
26620;SDS011;14253;44.840;10.444;2024-01-06T06:13:05;9.68;;;7.45;;
26620;SDS011;14253;44.840;10.444;2024-01-06T06:15:31;9.82;;;7.13;;
26620;SDS011;14253;44.840;10.444;2024-01-06T06:17:58;9.88;;;7.72;;
26620;SDS011;14253;44.840;10.444;2024-01-06T06:20:27;8.35;;;7.00;;
26620;SDS011;14253;44.840;10.444;2024-01-06T06:22:53;8.25;;;6.75;;
26620;SDS011;14253;44.840;10.444;2024-01-06T06:25:18;9.52;;;7.20;;
26620;SDS011;14253;44.840;10.444;2024-01-06T06:27:44;10.75;;;7.20;;
26620;SDS011;14253;44.840;10.444;2024-01-06T06:30:11;9.15;;;7.20;;
26620;SDS011;14253;44.840;10.444;2024-01-06T06:32:37;9.50;;;7.10;;
26620;SDS011;14253;44.840;10.444;2024-01-06T06:35:03;7.47;;;6.13;;
26620;SDS011;14253;44.840;10.444;2024-01-06T06:37:29;8.32;;;6.68;;
26620;SDS011;14253;44.840;10.444;2024-01-06T06:39:55;8.30;;;6.85;;
26620;SDS011;14253;44.840;10.444;2024-01-06T06:42:21;10.00;;;6.90;;
26620;SDS011;14253;44.840;10.444;2024-01-06T06:44:47;7.63;;;6.55;;
26620;SDS011;14253;44.840;10.444;2024-01-06T06:47:13;8.27;;;6.60;;
26620;SDS011;14253;44.840;10.444;2024-01-06T06:49:39;8.48;;;6.65;;
26620;SDS011;14253;44.840;10.444;2024-01-06T06:52:05;8.10;;;6.40;;
26620;SDS011;14253;44.840;10.444;2024-01-06T06:54:32;8.25;;;6.88;;
26620;SDS011;14253;44.840;10.444;2024-01-06T06:56:58;8.82;;;6.35;;
26620;SDS011;14253;44.840;10.444;2024-01-06T06:59:24;8.93;;;7.60;;
26620;SDS011;14253;44.840;10.444;2024-01-06T07:01:50;23.05;;;7.60;;
26620;SDS011;14253;44.840;10.444;2024-01-06T07:04:16;8.45;;;7.03;;
26620;SDS011;14253;44.840;10.444;2024-01-06T07:06:41;10.13;;;7.53;;
26620;SDS011;14253;44.840;10.444;2024-01-06T07:09:07;8.75;;;7.35;;
26620;SDS011;14253;44.840;10.444;2024-01-06T07:11:33;9.52;;;7.90;;
26620;SDS011;14253;44.840;10.444;2024-01-06T07:13:59;10.55;;;7.00;;
26620;SDS011;14253;44.840;10.444;2024-01-06T07:16:25;9.77;;;7.43;;
26620;SDS011;14253;44.840;10.444;2024-01-06T07:18:51;10.43;;;7.50;;
26620;SDS011;14253;44.840;10.444;2024-01-06T07:21:17;10.55;;;7.43;;
26620;SDS011;14253;44.840;10.444;2024-01-06T07:23:43;9.40;;;7.82;;
26620;SDS011;14253;44.840;10.444;2024-01-06T07:26:13;9.00;;;7.45;;
26620;SDS011;14253;44.840;10.444;2024-01-06T07:28:39;9.48;;;7.30;;
26620;SDS011;14253;44.840;10.444;2024-01-06T07:31:05;10.15;;;8.15;;
26620;SDS011;14253;44.840;10.444;2024-01-06T07:33:31;12.13;;;9.05;;
26620;SDS011;14253;44.840;10.444;2024-01-06T07:35:57;9.75;;;7.60;;
26620;SDS011;14253;44.840;10.444;2024-01-06T07:38:23;13.38;;;9.00;;
26620;SDS011;14253;44.840;10.444;2024-01-06T07:40:49;12.10;;;8.98;;
26620;SDS011;14253;44.840;10.444;2024-01-06T07:43:15;11.63;;;8.95;;
26620;SDS011;14253;44.840;10.444;2024-01-06T07:45:41;11.90;;;8.73;;
26620;SDS011;14253;44.840;10.444;2024-01-06T07:48:07;11.90;;;8.82;;
26620;SDS011;14253;44.840;10.444;2024-01-06T07:50:33;11.60;;;9.55;;
26620;SDS011;14253;44.840;10.444;2024-01-06T07:52:59;14.95;;;10.88;;
26620;SDS011;14253;44.840;10.444;2024-01-06T07:55:24;15.88;;;9.85;;
26620;SDS011;14253;44.840;10.444;2024-01-06T07:57:54;16.17;;;10.43;;
26620;SDS011;14253;44.840;10.444;2024-01-06T08:00:20;17.85;;;11.73;;
26620;SDS011;14253;44.840;10.444;2024-01-06T08:02:46;15.90;;;11.52;;
26620;SDS011;14253;44.840;10.444;2024-01-06T08:05:12;20.23;;;12.23;;
26620;SDS011;14253;44.840;10.444;2024-01-06T08:07:38;16.02;;;11.80;;
26620;SDS011;14253;44.840;10.444;2024-01-06T08:10:05;16.45;;;11.73;;
26620;SDS011;14253;44.840;10.444;2024-01-06T08:12:31;16.85;;;12.68;;
26620;SDS011;14253;44.840;10.444;2024-01-06T08:14:57;17.33;;;12.88;;
26620;SDS011;14253;44.840;10.444;2024-01-06T08:17:23;17.95;;;13.15;;
26620;SDS011;14253;44.840;10.444;2024-01-06T08:19:49;17.98;;;13.05;;
26620;SDS011;14253;44.840;10.444;2024-01-06T08:22:15;18.00;;;13.27;;
26620;SDS011;14253;44.840;10.444;2024-01-06T08:24:41;20.50;;;14.15;;
26620;SDS011;14253;44.840;10.444;2024-01-06T08:27:06;20.75;;;14.50;;
26620;SDS011;14253;44.840;10.444;2024-01-06T08:29:33;24.73;;;14.25;;
26620;SDS011;14253;44.840;10.444;2024-01-06T08:31:59;18.10;;;13.85;;
26620;SDS011;14253;44.840;10.444;2024-01-06T08:34:25;19.77;;;13.90;;
26620;SDS011;14253;44.840;10.444;2024-01-06T08:36:52;18.70;;;13.20;;
26620;SDS011;14253;44.840;10.444;2024-01-06T08:39:18;21.33;;;12.95;;
26620;SDS011;14253;44.840;10.444;2024-01-06T08:41:44;17.55;;;12.93;;
26620;SDS011;14253;44.840;10.444;2024-01-06T08:44:11;17.70;;;12.68;;
26620;SDS011;14253;44.840;10.444;2024-01-06T08:46:37;20.27;;;12.77;;
26620;SDS011;14253;44.840;10.444;2024-01-06T08:49:03;17.77;;;12.25;;
26620;SDS011;14253;44.840;10.444;2024-01-06T08:51:29;16.88;;;11.80;;
26620;SDS011;14253;44.840;10.444;2024-01-06T08:53:56;16.67;;;11.45;;
26620;SDS011;14253;44.840;10.444;2024-01-06T08:56:22;20.75;;;12.15;;
26620;SDS011;14253;44.840;10.444;2024-01-06T08:58:48;19.33;;;11.95;;
26620;SDS011;14253;44.840;10.444;2024-01-06T09:01:14;17.00;;;11.23;;
26620;SDS011;14253;44.840;10.444;2024-01-06T09:03:40;17.17;;;11.20;;
26620;SDS011;14253;44.840;10.444;2024-01-06T09:06:06;18.77;;;12.48;;
26620;SDS011;14253;44.840;10.444;2024-01-06T09:08:32;21.05;;;14.00;;
26620;SDS011;14253;44.840;10.444;2024-01-06T09:10:58;20.67;;;13.93;;
26620;SDS011;14253;44.840;10.444;2024-01-06T09:13:24;19.77;;;13.80;;
26620;SDS011;14253;44.840;10.444;2024-01-06T09:15:50;21.63;;;14.40;;
26620;SDS011;14253;44.840;10.444;2024-01-06T09:18:16;23.05;;;15.50;;
26620;SDS011;14253;44.840;10.444;2024-01-06T09:20:43;24.42;;;15.43;;
26620;SDS011;14253;44.840;10.444;2024-01-06T09:23:09;24.75;;;15.85;;
26620;SDS011;14253;44.840;10.444;2024-01-06T09:25:38;24.42;;;15.38;;
26620;SDS011;14253;44.840;10.444;2024-01-06T09:28:05;25.98;;;16.55;;
26620;SDS011;14253;44.840;10.444;2024-01-06T09:30:33;26.80;;;16.00;;
26620;SDS011;14253;44.840;10.444;2024-01-06T09:32:59;26.23;;;16.98;;
26620;SDS011;14253;44.840;10.444;2024-01-06T09:35:25;29.60;;;17.80;;
26620;SDS011;14253;44.840;10.444;2024-01-06T09:37:51;26.58;;;16.58;;
26620;SDS011;14253;44.840;10.444;2024-01-06T09:40:23;27.08;;;16.65;;
26620;SDS011;14253;44.840;10.444;2024-01-06T09:42:50;29.15;;;16.77;;
26620;SDS011;14253;44.840;10.444;2024-01-06T09:45:16;28.20;;;16.52;;
26620;SDS011;14253;44.840;10.444;2024-01-06T09:47:42;29.75;;;18.40;;
26620;SDS011;14253;44.840;10.444;2024-01-06T09:50:14;32.28;;;18.10;;
26620;SDS011;14253;44.840;10.444;2024-01-06T09:52:45;33.22;;;19.17;;
26620;SDS011;14253;44.840;10.444;2024-01-06T09:55:20;34.78;;;20.00;;
26620;SDS011;14253;44.840;10.444;2024-01-06T09:57:50;33.50;;;20.17;;
26620;SDS011;14253;44.840;10.444;2024-01-06T10:00:16;32.83;;;18.67;;
26620;SDS011;14253;44.840;10.444;2024-01-06T10:02:44;29.60;;;18.88;;
26620;SDS011;14253;44.840;10.444;2024-01-06T10:05:11;27.25;;;17.23;;
26620;SDS011;14253;44.840;10.444;2024-01-06T10:07:41;25.30;;;16.83;;
26620;SDS011;14253;44.840;10.444;2024-01-06T10:10:09;24.88;;;16.13;;
26620;SDS011;14253;44.840;10.444;2024-01-06T10:12:39;21.65;;;14.93;;
26620;SDS011;14253;44.840;10.444;2024-01-06T10:15:09;22.17;;;15.27;;
26620;SDS011;14253;44.840;10.444;2024-01-06T10:17:37;22.73;;;14.48;;
26620;SDS011;14253;44.840;10.444;2024-01-06T10:20:10;21.45;;;13.73;;
26620;SDS011;14253;44.840;10.444;2024-01-06T10:22:42;18.98;;;13.55;;
26620;SDS011;14253;44.840;10.444;2024-01-06T10:25:09;19.92;;;13.30;;
26620;SDS011;14253;44.840;10.444;2024-01-06T10:27:39;18.35;;;13.80;;
26620;SDS011;14253;44.840;10.444;2024-01-06T10:30:06;21.95;;;14.70;;
26620;SDS011;14253;44.840;10.444;2024-01-06T10:32:34;21.10;;;14.25;;
26620;SDS011;14253;44.840;10.444;2024-01-06T10:35:02;20.75;;;15.15;;
26620;SDS011;14253;44.840;10.444;2024-01-06T10:37:29;23.95;;;16.20;;
26620;SDS011;14253;44.840;10.444;2024-01-06T10:40:09;21.25;;;14.48;;
26620;SDS011;14253;44.840;10.444;2024-01-06T10:42:49;19.75;;;14.18;;
26620;SDS011;14253;44.840;10.444;2024-01-06T10:45:23;21.00;;;14.68;;
26620;SDS011;14253;44.840;10.444;2024-01-06T10:47:58;21.65;;;14.38;;
26620;SDS011;14253;44.840;10.444;2024-01-06T10:50:26;19.88;;;14.85;;
26620;SDS011;14253;44.840;10.444;2024-01-06T10:52:54;20.10;;;15.00;;
26620;SDS011;14253;44.840;10.444;2024-01-06T10:55:21;20.38;;;14.55;;
26620;SDS011;14253;44.840;10.444;2024-01-06T10:57:51;21.08;;;14.55;;
26620;SDS011;14253;44.840;10.444;2024-01-06T11:00:17;21.80;;;15.00;;
26620;SDS011;14253;44.840;10.444;2024-01-06T11:02:43;22.38;;;16.15;;
26620;SDS011;14253;44.840;10.444;2024-01-06T11:05:12;20.70;;;15.05;;
26620;SDS011;14253;44.840;10.444;2024-01-06T11:07:39;22.50;;;15.15;;
26620;SDS011;14253;44.840;10.444;2024-01-06T11:10:14;23.17;;;16.08;;
26620;SDS011;14253;44.840;10.444;2024-01-06T11:12:42;22.20;;;15.55;;
26620;SDS011;14253;44.840;10.444;2024-01-06T11:15:08;25.45;;;15.95;;
26620;SDS011;14253;44.840;10.444;2024-01-06T11:17:50;23.40;;;15.75;;
26620;SDS011;14253;44.840;10.444;2024-01-06T11:20:19;24.20;;;16.58;;
26620;SDS011;14253;44.840;10.444;2024-01-06T11:22:46;23.42;;;15.88;;
26620;SDS011;14253;44.840;10.444;2024-01-06T11:25:13;20.90;;;15.93;;
26620;SDS011;14253;44.840;10.444;2024-01-06T11:27:42;21.05;;;14.98;;
26620;SDS011;14253;44.840;10.444;2024-01-06T11:30:20;20.30;;;14.45;;
26620;SDS011;14253;44.840;10.444;2024-01-06T11:32:46;22.70;;;14.57;;
26620;SDS011;14253;44.840;10.444;2024-01-06T11:35:15;20.85;;;14.88;;
26620;SDS011;14253;44.840;10.444;2024-01-06T11:42:47;21.58;;;14.95;;
26620;SDS011;14253;44.840;10.444;2024-01-06T11:45:14;22.65;;;15.73;;
26620;SDS011;14253;44.840;10.444;2024-01-06T11:47:47;24.88;;;15.75;;
26620;SDS011;14253;44.840;10.444;2024-01-06T11:50:16;23.83;;;16.83;;
26620;SDS011;14253;44.840;10.444;2024-01-06T11:52:42;22.63;;;15.73;;
26620;SDS011;14253;44.840;10.444;2024-01-06T11:55:09;20.75;;;15.05;;
26620;SDS011;14253;44.840;10.444;2024-01-06T11:57:35;22.30;;;15.77;;
26620;SDS011;14253;44.840;10.444;2024-01-06T12:00:01;19.15;;;14.40;;
26620;SDS011;14253;44.840;10.444;2024-01-06T12:02:32;20.25;;;14.98;;
26620;SDS011;14253;44.840;10.444;2024-01-06T12:04:58;18.63;;;14.50;;
26620;SDS011;14253;44.840;10.444;2024-01-06T12:07:24;18.10;;;13.80;;
26620;SDS011;14253;44.840;10.444;2024-01-06T12:09:50;18.00;;;13.50;;
26620;SDS011;14253;44.840;10.444;2024-01-06T12:12:25;16.67;;;13.13;;
26620;SDS011;14253;44.840;10.444;2024-01-06T12:14:51;17.40;;;12.90;;
26620;SDS011;14253;44.840;10.444;2024-01-06T12:17:17;15.73;;;12.10;;
26620;SDS011;14253;44.840;10.444;2024-01-06T12:19:46;15.15;;;11.68;;
26620;SDS011;14253;44.840;10.444;2024-01-06T12:22:14;15.35;;;11.27;;
26620;SDS011;14253;44.840;10.444;2024-01-06T12:24:41;14.80;;;10.95;;
26620;SDS011;14253;44.840;10.444;2024-01-06T12:27:09;16.17;;;10.80;;
26620;SDS011;14253;44.840;10.444;2024-01-06T12:29:38;12.95;;;10.32;;
26620;SDS011;14253;44.840;10.444;2024-01-06T12:32:05;12.25;;;9.63;;
26620;SDS011;14253;44.840;10.444;2024-01-06T12:34:32;12.48;;;9.68;;
26620;SDS011;14253;44.840;10.444;2024-01-06T12:36:58;13.75;;;10.32;;
26620;SDS011;14253;44.840;10.444;2024-01-06T12:39:27;12.50;;;9.63;;
26620;SDS011;14253;44.840;10.444;2024-01-06T12:41:54;15.05;;;9.48;;
26620;SDS011;14253;44.840;10.444;2024-01-06T12:44:21;14.77;;;10.80;;
26620;SDS011;14253;44.840;10.444;2024-01-06T12:46:48;15.13;;;10.80;;
26620;SDS011;14253;44.840;10.444;2024-01-06T12:49:14;12.23;;;9.80;;
26620;SDS011;14253;44.840;10.444;2024-01-06T12:51:40;11.88;;;9.90;;
26620;SDS011;14253;44.840;10.444;2024-01-06T12:54:06;13.50;;;9.13;;
26620;SDS011;14253;44.840;10.444;2024-01-06T12:56:32;10.98;;;9.23;;
26620;SDS011;14253;44.840;10.444;2024-01-06T12:58:58;13.98;;;9.23;;
26620;SDS011;14253;44.840;10.444;2024-01-06T13:01:25;11.55;;;9.57;;
26620;SDS011;14253;44.840;10.444;2024-01-06T13:03:51;13.30;;;10.35;;
26620;SDS011;14253;44.840;10.444;2024-01-06T13:06:19;16.85;;;12.13;;
26620;SDS011;14253;44.840;10.444;2024-01-06T13:08:45;13.48;;;9.82;;
26620;SDS011;14253;44.840;10.444;2024-01-06T13:11:12;12.05;;;8.90;;
26620;SDS011;14253;44.840;10.444;2024-01-06T13:13:38;11.57;;;8.77;;
26620;SDS011;14253;44.840;10.444;2024-01-06T13:16:04;12.68;;;9.27;;
26620;SDS011;14253;44.840;10.444;2024-01-06T13:18:31;11.63;;;8.55;;
26620;SDS011;14253;44.840;10.444;2024-01-06T13:20:57;12.52;;;9.45;;
26620;SDS011;14253;44.840;10.444;2024-01-06T13:23:23;12.57;;;10.10;;
26620;SDS011;14253;44.840;10.444;2024-01-06T13:25:49;14.05;;;10.52;;
26620;SDS011;14253;44.840;10.444;2024-01-06T13:28:15;14.45;;;10.30;;
26620;SDS011;14253;44.840;10.444;2024-01-06T13:30:40;12.77;;;10.48;;
26620;SDS011;14253;44.840;10.444;2024-01-06T13:33:07;13.68;;;10.60;;
26620;SDS011;14253;44.840;10.444;2024-01-06T13:35:34;13.90;;;9.85;;
26620;SDS011;14253;44.840;10.444;2024-01-06T13:38:02;14.50;;;10.35;;
26620;SDS011;14253;44.840;10.444;2024-01-06T13:40:29;13.27;;;10.02;;
26620;SDS011;14253;44.840;10.444;2024-01-06T13:42:55;12.80;;;9.75;;
26620;SDS011;14253;44.840;10.444;2024-01-06T13:45:23;14.50;;;10.98;;
26620;SDS011;14253;44.840;10.444;2024-01-06T13:47:49;12.95;;;9.95;;
26620;SDS011;14253;44.840;10.444;2024-01-06T13:50:16;15.98;;;11.23;;
26620;SDS011;14253;44.840;10.444;2024-01-06T13:52:42;16.77;;;11.48;;
26620;SDS011;14253;44.840;10.444;2024-01-06T13:55:10;16.10;;;11.18;;
26620;SDS011;14253;44.840;10.444;2024-01-06T13:57:37;14.65;;;10.52;;
26620;SDS011;14253;44.840;10.444;2024-01-06T14:00:09;14.55;;;10.40;;
26620;SDS011;14253;44.840;10.444;2024-01-06T14:02:39;14.48;;;10.30;;
26620;SDS011;14253;44.840;10.444;2024-01-06T14:05:06;14.82;;;11.05;;
26620;SDS011;14253;44.840;10.444;2024-01-06T14:07:34;16.60;;;11.38;;
26620;SDS011;14253;44.840;10.444;2024-01-06T14:10:05;15.25;;;11.25;;
26620;SDS011;14253;44.840;10.444;2024-01-06T14:12:32;18.27;;;12.15;;
26620;SDS011;14253;44.840;10.444;2024-01-06T14:14:58;17.08;;;11.63;;
26620;SDS011;14253;44.840;10.444;2024-01-06T14:17:24;16.08;;;11.43;;
26620;SDS011;14253;44.840;10.444;2024-01-06T14:19:50;17.80;;;11.93;;
26620;SDS011;14253;44.840;10.444;2024-01-06T14:22:17;19.15;;;11.57;;
26620;SDS011;14253;44.840;10.444;2024-01-06T14:24:43;16.15;;;12.07;;